Falcon AFB, Colorado
Current Conditions -  °F | °C
As of 4:54 PM on Wednesday 22 Oct 2014 (Local Time) from KCOS Reporting Station
Scattered Clouds Scattered Clouds  
Wind Chill: 64°   Ceiling: Unl
Heat Index: 64°   Visibility: 10mi
Dew Point: 37°   Wind: 6mph
Humidity: 37%   Direction: 60°ENE
Pressure: 30.13"   Gusts: NA
Location:  38.8334°N, 104.82°W
Report Text: KCOS 222254Z 06005KT 10SM FEW080 SCT110 18/03 A3013 RMK AO2 SLP149 T01780028
Loading
Personal Weather Stations






























Interactive Weather Map
Tropical Storm Tracking
New forecast layout! Learn more

10-Day Weather Forecast

Advertisements
Track Severe Weather on mobile